Time;durP1;ratioP1;P1;durP2;ratioP2;P2;SDS_P1;SDS_P2;PMS_P1;PMS_P2;Temp;Humidity;BMP_temperature;BMP_pressure;BME280_temperature;BME280_humidity;BME280_pressure;Samples;Min_cycle;Max_cycle;Signal;HPM_P1;HPM_P2
2022/05/05 00:01:43;;;;;;;4.47;4.07;;;;;;;9.29;90.59;97808.00;6213311;28;20232;-84
2022/05/05 00:04:45;;;;;;;4.50;4.10;;;;;;;9.28;90.71;97809.00;6197573;28;20361;-84
2022/05/05 00:07:48;;;;;;;4.63;4.23;;;;;;;9.30;90.70;97811.50;6229369;28;20223;-84
2022/05/05 00:14:31;;;;;;;4.33;3.93;;;;;;;9.32;90.79;97806.97;6230917;28;20881;-84
2022/05/05 00:17:34;;;;;;;4.43;3.90;;;;;;;9.35;91.08;97815.47;6197250;28;20720;-84
2022/05/05 00:20:36;;;;;;;4.27;3.87;;;;;;;9.35;90.97;97812.00;6213278;28;20247;-84
2022/05/05 00:23:38;;;;;;;4.07;3.67;;;;;;;9.35;90.99;97814.66;6195848;28;20284;-84
2022/05/05 00:26:40;;;;;;;5.10;3.90;;;;;;;9.36;91.29;97811.91;6197329;28;20231;-85
2022/05/05 00:29:42;;;;;;;7.93;4.30;;;;;;;9.38;90.92;97817.91;6198482;28;20240;-85
2022/05/05 00:32:44;;;;;;;3.80;3.40;;;;;;;9.38;91.29;97825.81;6214474;28;20285;-84
2022/05/05 00:35:46;;;;;;;5.83;3.90;;;;;;;9.36;91.02;97825.06;6231801;28;20226;-84
2022/05/05 00:38:48;;;;;;;3.93;3.63;;;;;;;9.34;91.33;97819.06;6205253;28;20253;-84
2022/05/05 00:41:51;;;;;;;4.67;3.70;;;;;;;9.34;91.24;97821.69;6202390;28;20238;-84
2022/05/05 00:44:53;;;;;;;4.80;3.77;;;;;;;9.31;91.72;97832.44;6215252;28;20782;-85
2022/05/05 00:48:05;;;;;;;3.80;3.50;;;;;;;9.31;90.81;97837.72;6213097;28;20362;-85
2022/05/05 00:51:07;;;;;;;5.30;3.90;;;;;;;9.27;91.22;97838.91;6228539;28;20217;-85
2022/05/05 00:54:10;;;;;;;3.60;3.30;;;;;;;9.19;91.54;97830.69;6187676;28;20576;-85
2022/05/05 00:57:13;;;;;;;3.57;3.27;;;;;;;9.15;91.43;97830.09;6202429;28;20343;-84
2022/05/05 01:04:49;;;;;;;3.67;3.20;;;;;;;9.02;92.69;97824.03;6227839;28;20232;-84
2022/05/05 01:07:51;;;;;;;3.60;3.30;;;;;;;8.97;92.03;97836.69;6196079;28;20262;-85
2022/05/05 01:10:53;;;;;;;3.40;3.10;;;;;;;8.92;91.90;97838.78;6211220;28;20361;-84
2022/05/05 01:13:56;;;;;;;5.00;3.43;;;;;;;8.85;92.05;97835.75;6195295;28;20257;-85
2022/05/05 01:16:59;;;;;;;3.27;3.07;;;;;;;8.80;91.90;97835.22;6197118;28;20232;-85
2022/05/05 01:20:14;;;;;;;3.50;2.93;;;;;;;8.76;91.81;97844.31;6214983;28;20231;-85
2022/05/05 01:23:17;;;;;;;3.27;2.97;;;;;;;8.69;91.98;97843.03;6194977;28;20323;-86
2022/05/05 01:29:39;;;;;;;3.77;3.33;;;;;;;8.61;91.62;97848.00;6211466;28;20244;-84
2022/05/05 01:32:41;;;;;;;2.97;2.77;;;;;;;8.54;91.67;97845.91;6206117;28;20224;-84
2022/05/05 01:35:45;;;;;;;4.27;3.27;;;;;;;8.48;91.81;97849.81;6211482;28;20232;-85
2022/05/05 01:38:47;;;;;;;3.77;2.97;;;;;;;8.39;91.43;97860.94;6210444;28;20589;-84
2022/05/05 01:41:49;;;;;;;4.07;3.00;;;;;;;8.30;91.37;97856.28;6229901;28;20784;-84
2022/05/05 01:44:51;;;;;;;3.47;3.17;;;;;;;8.21;91.71;97856.91;6211171;28;20365;-85
2022/05/05 01:47:53;;;;;;;3.20;3.00;;;;;;;8.09;91.23;97854.16;6204739;28;20304;-84
2022/05/05 01:50:55;;;;;;;3.27;3.07;;;;;;;8.04;91.55;97853.66;6197527;28;20713;-84
2022/05/05 01:53:57;;;;;;;3.73;2.90;;;;;;;7.99;91.54;97853.09;6210655;28;20286;-85
2022/05/05 01:57:00;;;;;;;4.87;3.10;;;;;;;7.96;91.27;97858.59;6194165;28;20317;-84
2022/05/05 02:00:03;;;;;;;3.47;3.17;;;;;;;7.94;91.70;97857.00;6210461;28;20245;-84
2022/05/05 02:03:15;;;;;;;3.70;3.07;;;;;;;7.83;91.20;97860.34;6212499;28;20245;-84
2022/05/05 02:06:17;;;;;;;4.10;3.63;;;;;;;7.76;90.87;97861.69;6226867;28;20297;-84
2022/05/05 02:09:19;;;;;;;3.30;3.00;;;;;;;7.68;91.30;97853.47;6194160;28;20215;-84
2022/05/05 02:12:21;;;;;;;3.70;3.07;;;;;;;7.63;90.88;97851.13;6227351;28;20230;-85
2022/05/05 02:15:23;;;;;;;3.80;3.50;;;;;;;7.56;91.29;97849.88;6210407;28;20313;-84
2022/05/05 02:18:26;;;;;;;4.27;2.80;;;;;;;7.53;91.02;97847.44;6227358;28;20263;-84
2022/05/05 02:21:28;;;;;;;3.30;2.90;;;;;;;7.47;91.14;97844.38;6211130;28;20573;-84
2022/05/05 02:24:30;;;;;;;4.80;3.23;;;;;;;7.43;91.13;97848.13;6209428;28;20223;-84
2022/05/05 02:27:48;;;;;;;3.47;3.17;;;;;;;7.41;91.46;97842.97;6210875;28;20231;-84
2022/05/05 02:30:50;;;;;;;3.50;3.20;;;;;;;7.36;91.11;97842.44;6209966;28;20223;-84
2022/05/05 02:33:52;;;;;;;3.50;3.20;;;;;;;7.32;91.09;97852.28;6201236;28;20242;-85
2022/05/05 02:40:14;;;;;;;4.60;3.67;;;;;;;7.25;90.93;97851.00;6222497;28;20265;-84
2022/05/05 02:43:16;;;;;;;5.50;3.73;;;;;;;7.20;90.82;97855.69;6210583;28;20237;-85
2022/05/05 02:46:18;;;;;;;3.50;3.20;;;;;;;7.15;91.05;97849.91;6211478;28;20293;-84
2022/05/05 02:49:20;;;;;;;3.10;2.80;;;;;;;7.10;90.89;97857.22;6209595;28;20698;-83
2022/05/05 02:52:22;;;;;;;6.43;3.90;;;;;;;7.06;90.61;97854.91;6209238;28;20373;-84
2022/05/05 02:55:24;;;;;;;4.13;3.37;;;;;;;7.02;90.96;97859.50;6226922;28;20381;-84
2022/05/05 02:58:28;;;;;;;3.53;3.23;;;;;;;7.00;91.11;97861.38;6210575;28;20318;-84
2022/05/05 03:01:53;;;;;;;3.90;3.50;;;;;;;6.96;90.72;97865.13;6210254;28;20240;-84
2022/05/05 03:04:58;;;;;;;6.63;4.23;;;;;;;6.92;90.59;97868.88;6176110;28;20231;-84
2022/05/05 03:07:59;;;;;;;4.37;3.97;;;;;;;6.88;90.54;97867.41;6142666;28;20448;-85
2022/05/05 03:11:01;;;;;;;4.67;3.83;;;;;;;6.85;90.87;97868.44;6150511;28;20283;-84
2022/05/05 03:14:03;;;;;;;4.97;3.90;;;;;;;6.82;90.74;97870.38;6150054;28;20700;-84
2022/05/05 03:17:05;;;;;;;3.73;3.43;;;;;;;6.78;90.77;97869.75;6140506;28;20233;-84
2022/05/05 03:20:08;;;;;;;4.20;3.60;;;;;;;6.74;90.91;97863.00;6151181;28;20246;-84
2022/05/05 03:23:10;;;;;;;4.10;3.70;;;;;;;6.72;90.84;97859.63;6181123;28;20494;-84
2022/05/05 03:26:13;;;;;;;7.53;3.80;;;;;;;6.72;91.01;97866.66;6148216;28;20262;-84
2022/05/05 03:29:15;;;;;;;4.10;3.73;;;;;;;6.69;90.59;97870.28;6163719;28;20286;-84
2022/05/05 03:32:17;;;;;;;3.63;3.10;;;;;;;6.65;90.64;97874.91;6148394;28;20368;-84
2022/05/05 03:35:20;;;;;;;5.00;3.93;;;;;;;6.63;90.58;97875.94;6193462;28;20237;-84
2022/05/05 03:38:22;;;;;;;4.10;3.70;;;;;;;6.61;91.09;97873.41;6197663;28;20312;-84
2022/05/05 03:41:24;;;;;;;4.10;3.27;;;;;;;6.60;90.73;97883.97;6230313;28;20604;-84
2022/05/05 03:44:26;;;;;;;4.07;3.67;;;;;;;6.56;90.93;97888.59;6213357;28;20252;-84
2022/05/05 03:47:28;;;;;;;6.93;3.77;;;;;;;6.55;91.08;97889.53;6213107;28;20303;-84
2022/05/05 03:50:30;;;;;;;5.47;4.30;;;;;;;6.54;90.59;97894.84;6215024;28;20230;-84
2022/05/05 03:53:33;;;;;;;3.97;3.60;;;;;;;6.53;90.59;97898.41;6214160;28;20710;-85
2022/05/05 03:56:35;;;;;;;4.40;4.00;;;;;;;6.54;91.12;97897.47;6215662;28;20254;-85
2022/05/05 03:59:37;;;;;;;4.30;3.90;;;;;;;6.55;90.57;97894.75;6214865;28;20374;-84
2022/05/05 04:02:39;;;;;;;4.57;3.40;;;;;;;6.55;90.84;97902.63;6198772;28;20708;-83
2022/05/05 04:05:41;;;;;;;6.20;4.27;;;;;;;6.59;90.45;97901.47;6215078;28;20254;-84
2022/05/05 04:08:43;;;;;;;8.53;4.10;;;;;;;6.60;90.73;97899.72;6199478;28;20307;-83
2022/05/05 04:11:45;;;;;;;4.47;4.07;;;;;;;6.63;90.74;97896.91;6197705;28;20317;-84
2022/05/05 04:14:47;;;;;;;4.50;4.00;;;;;;;6.65;90.66;97898.50;6229174;28;20531;-84
2022/05/05 04:17:49;;;;;;;5.00;4.50;;;;;;;6.69;90.65;97901.78;6213426;28;20299;-84
2022/05/05 04:20:51;;;;;;;5.70;4.70;;;;;;;6.72;90.76;97903.38;6212886;28;20327;-84
2022/05/05 04:23:54;;;;;;;6.40;4.90;;;;;;;6.75;91.11;97897.94;6212631;28;20401;-84
2022/05/05 04:26:56;;;;;;;5.10;4.60;;;;;;;6.81;90.92;97902.81;6196422;28;20625;-84
2022/05/05 04:29:58;;;;;;;6.07;5.27;;;;;;;6.89;90.80;97901.38;6212511;28;20339;-84
2022/05/05 04:33:01;;;;;;;5.17;4.67;;;;;;;6.99;90.90;97901.66;6212542;28;20232;-84
2022/05/05 04:36:03;;;;;;;5.27;4.77;;;;;;;7.08;90.63;97906.34;6228466;28;20223;-84
2022/05/05 04:39:06;;;;;;;6.17;5.33;;;;;;;7.13;90.85;97906.91;6195713;28;20300;-84
2022/05/05 04:42:10;;;;;;;4.43;4.03;;;;;;;7.18;90.85;97915.34;6228968;28;20281;-84
2022/05/05 04:45:12;;;;;;;5.20;4.70;;;;;;;7.24;90.54;97914.09;6195805;28;20305;-85
2022/05/05 04:48:17;;;;;;;4.50;4.10;;;;;;;7.28;90.51;97908.56;6188480;28;20259;-85
2022/05/05 04:51:19;;;;;;;5.40;4.87;;;;;;;7.34;90.87;97910.81;6187571;28;20310;-84
2022/05/05 04:54:20;;;;;;;4.57;4.17;;;;;;;7.36;90.29;97908.94;6204604;28;20218;-84
2022/05/05 04:57:23;;;;;;;5.00;4.50;;;;;;;7.41;90.35;97909.47;6229700;28;20229;-84
2022/05/05 05:00:25;;;;;;;4.40;4.00;;;;;;;7.50;90.21;97910.66;6228192;28;20263;-84
2022/05/05 05:03:33;;;;;;;4.70;4.20;;;;;;;7.58;90.47;97916.28;6230018;28;20281;-84
2022/05/05 05:06:35;;;;;;;4.80;4.40;;;;;;;7.66;90.33;97911.38;6227753;28;20314;-84
2022/05/05 05:09:37;;;;;;;4.53;4.13;;;;;;;7.73;90.16;97912.63;6212193;28;20239;-84
2022/05/05 05:12:40;;;;;;;5.20;4.67;;;;;;;7.83;89.84;97914.66;6212412;28;20235;-84
2022/05/05 05:15:42;;;;;;;5.20;4.53;;;;;;;7.89;89.66;97909.00;6201898;28;20268;-84
2022/05/05 05:18:44;;;;;;;6.33;4.53;;;;;;;8.00;89.71;97911.75;6228518;28;20738;-84
2022/05/05 05:21:46;;;;;;;5.00;4.50;;;;;;;8.10;89.50;97918.09;6211205;28;20759;-84
2022/05/05 05:24:48;;;;;;;4.90;4.50;;;;;;;8.20;89.54;97913.91;6211591;28;20330;-83
2022/05/05 05:27:50;;;;;;;5.03;4.53;;;;;;;8.30;89.37;97914.13;6228110;28;20353;-85
2022/05/05 05:31:11;;;;;;;4.90;4.43;;;;;;;8.43;89.06;97920.28;6197744;28;20695;-84
2022/05/05 05:34:14;;;;;;;5.00;4.50;;;;;;;8.59;89.10;97914.81;6211626;28;20231;-84
2022/05/05 05:37:16;;;;;;;5.30;4.80;;;;;;;8.70;89.14;97915.75;6211900;28;20281;-84
2022/05/05 05:40:18;;;;;;;6.30;4.37;;;;;;;8.86;88.53;97911.13;6215745;28;20317;-84
2022/05/05 05:43:20;;;;;;;4.97;4.30;;;;;;;9.02;87.91;97918.78;6227920;28;20242;-84
2022/05/05 05:46:22;;;;;;;4.63;4.17;;;;;;;9.18;88.43;97918.56;6194282;28;20238;-84
2022/05/05 05:49:25;;;;;;;4.80;4.30;;;;;;;9.36;88.11;97921.69;6229820;28;20243;-85
2022/05/05 05:52:27;;;;;;;4.70;4.30;;;;;;;9.54;88.52;97908.03;6213319;28;20261;-85
2022/05/05 05:55:29;;;;;;;6.80;4.47;;;;;;;9.65;88.08;97917.78;6230925;28;20231;-85
2022/05/05 05:58:31;;;;;;;4.37;3.97;;;;;;;9.77;88.33;97918.69;6209868;28;20296;-85
2022/05/05 06:05:08;;;;;;;4.83;4.37;;;;;;;10.08;88.48;97928.63;6228239;28;20236;-84
2022/05/05 06:08:11;;;;;;;4.57;4.17;;;;;;;10.25;89.00;97933.53;6228813;28;20754;-84
2022/05/05 06:11:14;;;;;;;4.83;3.67;;;;;;;10.37;88.89;97929.16;6211125;28;20318;-84
2022/05/05 06:14:15;;;;;;;4.30;3.90;;;;;;;10.51;88.90;97928.09;6226851;28;20604;-84
2022/05/05 06:17:18;;;;;;;5.00;4.50;;;;;;;10.63;88.98;97933.28;6185731;28;20232;-85
2022/05/05 06:20:20;;;;;;;4.77;3.83;;;;;;;10.79;89.26;97935.56;6218252;28;20243;-84
2022/05/05 06:23:23;;;;;;;3.63;2.77;;;;;;;10.95;89.22;97933.44;6211279;28;20265;-84
2022/05/05 06:26:27;;;;;;;7.00;3.10;;;;;;;11.14;88.62;97935.47;6209853;28;20764;-84
2022/05/05 06:29:30;;;;;;;2.70;2.50;;;;;;;11.34;88.37;97937.41;6209460;28;20713;-84
2022/05/05 06:32:32;;;;;;;4.43;2.77;;;;;;;11.57;88.34;97937.38;6204660;28;20227;-85
2022/05/05 06:35:36;;;;;;;3.80;2.73;;;;;;;11.76;87.58;97929.66;6209583;28;20286;-84
2022/05/05 06:38:39;;;;;;;3.50;2.50;;;;;;;12.11;86.98;97929.41;6225402;28;20270;-85
2022/05/05 06:41:47;;;;;;;2.63;2.33;;;;;;;12.47;84.93;97931.66;6185995;28;20225;-85
2022/05/05 06:44:49;;;;;;;2.77;2.00;;;;;;;12.84;83.78;97928.53;6206879;28;20292;-84
2022/05/05 06:47:51;;;;;;;1.77;1.67;;;;;;;13.32;82.13;97936.72;6195704;28;20760;-84
2022/05/05 06:50:53;;;;;;;2.23;2.03;;;;;;;13.75;81.39;97932.97;6224859;28;20230;-85
2022/05/05 06:53:55;;;;;;;1.73;1.60;;;;;;;14.16;79.82;97932.72;6220042;28;20241;-84
2022/05/05 06:56:57;;;;;;;1.97;1.50;;;;;;;14.55;78.16;97930.94;6219663;28;20643;-85
2022/05/05 06:59:59;;;;;;;3.00;1.40;;;;;;;15.05;76.47;97925.34;6199874;28;20566;-85
2022/05/05 07:03:01;;;;;;;3.17;1.30;;;;;;;15.42;73.82;97925.34;6231681;28;20325;-85
2022/05/05 07:06:05;;;;;;;4.83;1.13;;;;;;;15.70;72.20;97931.53;6194621;28;20240;-86
2022/05/05 07:12:28;;;;;;;1.23;1.13;;;;;;;15.92;70.35;97931.09;6225556;28;20599;-85
2022/05/05 07:15:31;;;;;;;0.97;0.97;;;;;;;16.44;68.48;97928.59;6199874;28;20711;-85
2022/05/05 07:18:33;;;;;;;1.47;1.07;;;;;;;16.92;67.10;97942.34;6188600;28;20316;-86
2022/05/05 07:21:37;;;;;;;0.70;0.70;;;;;;;17.44;64.87;97939.63;6215208;28;20232;-86
2022/05/05 07:24:39;;;;;;;0.70;0.70;;;;;;;17.91;63.08;97931.16;6213689;28;20259;-86
2022/05/05 07:27:41;;;;;;;0.60;0.60;;;;;;;18.11;61.13;97935.19;6230003;28;20242;-86
2022/05/05 07:30:44;;;;;;;0.60;0.60;;;;;;;18.36;58.86;97936.09;6194824;28;20592;-85
2022/05/05 07:33:46;;;;;;;1.30;0.90;;;;;;;18.79;57.56;97938.44;6205724;28;20237;-87
2022/05/05 07:36:48;;;;;;;2.40;0.70;;;;;;;18.79;57.08;97933.09;6207404;28;20670;-86
2022/05/05 07:39:50;;;;;;;1.97;0.70;;;;;;;18.52;59.44;97937.91;6225003;28;20250;-85
2022/05/05 07:42:52;;;;;;;1.03;0.80;;;;;;;18.79;59.20;97940.28;6216169;28;20235;-85
2022/05/05 07:45:54;;;;;;;0.60;0.60;;;;;;;19.25;58.66;97941.38;6215243;28;20322;-86
2022/05/05 07:48:56;;;;;;;1.47;0.80;;;;;;;19.62;57.26;97935.44;6216302;28;20232;-85
2022/05/05 07:51:58;;;;;;;0.70;0.70;;;;;;;19.76;56.20;97942.75;6231625;28;20834;-86
2022/05/05 07:55:00;;;;;;;0.60;0.60;;;;;;;20.04;56.52;97944.94;6197106;28;20409;-86
2022/05/05 07:58:02;;;;;;;1.63;0.70;;;;;;;20.32;56.73;97947.94;6214365;28;20236;-86
2022/05/05 08:01:04;;;;;;;0.60;0.60;;;;;;;20.13;53.79;97947.41;6213831;28;20235;-86
2022/05/05 08:04:06;;;;;;;2.40;0.60;;;;;;;19.61;55.08;97952.50;6230399;28;20252;-86
2022/05/05 08:07:10;;;;;;;0.80;0.63;;;;;;;20.03;54.32;97957.50;6213474;28;20293;-86
2022/05/05 08:10:12;;;;;;;0.60;0.60;;;;;;;20.47;53.87;97955.06;6212603;28;20598;-86
2022/05/05 08:13:15;;;;;;;0.47;0.47;;;;;;;20.86;52.56;97952.22;6198552;28;20719;-86
2022/05/05 08:16:17;;;;;;;3.17;0.70;;;;;;;20.95;50.46;97955.69;6212560;28;20223;-86
2022/05/05 08:19:20;;;;;;;0.63;0.63;;;;;;;21.05;49.60;97955.44;6212333;28;20247;-86
2022/05/05 08:22:23;;;;;;;1.70;0.60;;;;;;;21.22;50.04;97951.59;6213323;28;20271;-86
2022/05/05 08:28:46;;;;;;;3.60;0.80;;;;;;;21.82;50.38;97958.63;6233341;28;20553;-85
2022/05/05 08:31:48;;;;;;;1.43;0.53;;;;;;;21.99;48.50;97958.25;6200322;28;20723;-86
2022/05/05 08:34:50;;;;;;;0.67;0.67;;;;;;;22.14;46.29;97950.19;6212898;28;20247;-86
2022/05/05 08:37:52;;;;;;;2.10;0.60;;;;;;;22.64;46.25;97954.63;6212818;28;20266;-86
2022/05/05 08:40:55;;;;;;;0.60;0.60;;;;;;;22.87;44.15;97957.13;6212826;28;20713;-86
2022/05/05 08:43:57;;;;;;;0.30;0.30;;;;;;;22.68;43.15;97965.81;6197149;28;20315;-86
2022/05/05 08:47:05;;;;;;;0.90;0.70;;;;;;;22.09;44.21;97958.81;6211906;28;20224;-86
2022/05/05 08:50:10;;;;;;;1.00;0.73;;;;;;;21.30;47.28;97965.78;6195931;28;20234;-85
2022/05/05 08:53:16;;;;;;;0.60;0.60;;;;;;;21.01;47.94;97963.00;6196378;28;20310;-86
2022/05/05 08:56:18;;;;;;;0.60;0.60;;;;;;;21.72;48.24;97959.75;6227730;28;20244;-86
2022/05/05 08:59:22;;;;;;;0.50;0.50;;;;;;;22.52;45.57;97961.53;6229136;28;20770;-86
2022/05/05 09:02:24;;;;;;;0.43;0.43;;;;;;;22.99;45.39;97955.59;6211349;28;20625;-85
2022/05/05 09:05:46;;;;;;;1.63;0.40;;;;;;;23.46;44.73;97962.13;6195195;28;20227;-86
2022/05/05 09:08:48;;;;;;;0.40;0.40;;;;;;;23.66;45.33;97954.22;6228572;28;20240;-86
2022/05/05 09:12:10;;;;;;;0.60;0.50;;;;;;;23.96;45.42;97960.16;6211316;28;20714;-86
2022/05/05 09:15:13;;;;;;;1.60;0.57;;;;;;;23.82;45.31;97961.97;6198346;28;20548;-86
2022/05/05 09:18:20;;;;;;;1.50;0.50;;;;;;;23.51;46.07;97955.16;6228028;28;20687;-86
2022/05/05 09:21:34;;;;;;;0.77;0.50;;;;;;;23.27;44.76;97960.97;6211381;28;20223;-86
2022/05/05 09:24:40;;;;;;;0.57;0.57;;;;;;;22.98;43.56;97959.28;6210562;28;20406;-86
2022/05/05 09:27:44;;;;;;;0.60;0.50;;;;;;;23.16;42.63;97961.50;6195220;28;20776;-86
2022/05/05 09:30:48;;;;;;;0.73;0.53;;;;;;;23.75;43.24;97961.94;6208224;28;20248;-86
2022/05/05 09:33:50;;;;;;;0.73;0.60;;;;;;;24.31;40.96;97960.94;6187125;28;20790;-86
2022/05/05 09:36:52;;;;;;;0.40;0.40;;;;;;;24.96;40.04;97960.22;6202995;28;20627;-86
2022/05/05 09:39:59;;;;;;;0.57;0.50;;;;;;;25.57;38.84;97954.53;6212291;28;20813;-86
2022/05/05 09:43:01;;;;;;;2.20;0.60;;;;;;;25.59;38.77;97957.88;6211040;28;20252;-87
2022/05/05 09:46:26;;;;;;;0.40;0.40;;;;;;;25.05;39.36;97952.78;6200974;28;20696;-86
2022/05/05 09:49:29;;;;;;;0.53;0.40;;;;;;;24.77;40.34;97953.75;6202381;28;20216;-87
2022/05/05 09:59:29;;;;;;;2.80;0.70;;;;;;;26.86;34.50;97941.66;6227506;28;20231;-86
2022/05/05 10:06:16;;;;;;;0.60;0.60;;;;;;;24.78;36.67;97949.19;6153934;28;20739;-87
2022/05/05 10:09:19;;;;;;;0.60;0.60;;;;;;;24.22;37.75;97950.31;6210249;28;20204;-86
2022/05/05 10:12:22;;;;;;;1.47;0.70;;;;;;;23.94;41.04;97957.66;6226548;28;20414;-86
2022/05/05 10:15:26;;;;;;;0.40;0.40;;;;;;;23.73;43.69;97958.59;6210587;28;20230;-86
2022/05/05 10:18:45;;;;;;;1.03;0.70;;;;;;;23.43;40.98;97957.16;6228391;28;20251;-85
2022/05/05 10:22:02;;;;;;;1.03;0.60;;;;;;;23.58;42.17;97957.88;6243311;28;20242;-86
2022/05/05 10:25:12;;;;;;;0.80;0.60;;;;;;;23.98;40.27;97958.06;6194642;28;20749;-86
2022/05/05 10:28:36;;;;;;;0.90;0.83;;;;;;;24.46;38.25;97943.53;6214611;28;20708;-86
2022/05/05 10:31:42;;;;;;;0.63;0.60;;;;;;;25.86;35.93;97932.44;6210571;28;20232;-86
2022/05/05 10:34:51;;;;;;;0.60;0.60;;;;;;;25.69;35.30;97937.50;6227764;28;20264;-86
2022/05/05 10:37:53;;;;;;;1.55;0.80;;;;;;;23.67;36.31;97939.69;6193709;28;20266;-86
2022/05/05 10:40:57;;;;;;;2.93;1.20;;;;;;;22.56;39.37;97943.19;6210386;28;20236;-85
2022/05/05 10:44:16;;;;;;;0.83;0.70;;;;;;;22.33;40.70;97940.66;6211292;28;20239;-85
2022/05/05 10:47:18;;;;;;;1.83;0.60;;;;;;;22.36;44.01;97949.16;6220040;28;20228;-85
2022/05/05 10:50:53;;;;;;;0.63;0.60;;;;;;;22.29;46.53;97956.34;6201715;28;20311;-85
2022/05/05 10:54:22;;;;;;;0.70;0.70;;;;;;;22.01;47.63;97961.59;6190997;28;20225;-85
2022/05/05 10:57:24;;;;;;;1.13;0.73;;;;;;;21.85;48.23;97963.66;6185765;28;20290;-86
2022/05/05 11:00:42;;;;;;;0.70;0.70;;;;;;;21.57;49.53;97966.13;6208471;28;20228;-87
2022/05/05 11:04:06;;;;;;;0.60;0.60;;;;;;;21.31;50.12;97977.34;6209974;28;20795;-86
2022/05/05 11:07:25;;;;;;;0.50;0.50;;;;;;;21.02;50.94;97975.41;6226361;28;20244;-86
2022/05/05 11:10:46;;;;;;;2.10;0.70;;;;;;;20.83;51.98;97976.75;6201786;28;20760;-85
2022/05/05 11:13:48;;;;;;;0.83;0.60;;;;;;;20.71;52.63;97980.88;6220219;28;20318;-85
2022/05/05 11:23:47;;;;;;;0.50;0.50;;;;;;;20.03;56.11;97967.38;6225943;28;20355;-86
2022/05/05 11:26:53;;;;;;;0.63;0.63;;;;;;;19.63;57.11;97974.59;6203035;28;20236;-85
2022/05/05 11:29:57;;;;;;;1.10;0.90;;;;;;;19.36;57.39;97985.69;6210655;28;20293;-86
2022/05/05 11:33:00;;;;;;;1.63;0.87;;;;;;;19.01;58.72;97979.72;6230636;28;20605;-85
2022/05/05 11:36:18;;;;;;;1.33;0.80;;;;;;;18.88;59.16;97987.41;6216124;28;20359;-86
2022/05/05 11:39:20;;;;;;;0.93;0.80;;;;;;;18.85;59.79;97984.25;6213759;28;20200;-85
2022/05/05 11:42:23;;;;;;;2.20;1.17;;;;;;;18.75;60.09;97987.09;6200437;28;20506;-85
2022/05/05 11:45:27;;;;;;;1.03;0.80;;;;;;;18.66;60.93;97998.78;6219996;28;20231;-85
2022/05/05 11:48:29;;;;;;;0.90;0.90;;;;;;;18.58;62.09;98002.28;6214873;28;20866;-85
2022/05/05 11:51:41;;;;;;;3.93;0.93;;;;;;;18.40;62.72;97993.53;6214251;28;20311;-85
2022/05/05 11:54:47;;;;;;;1.20;1.10;;;;;;;18.02;63.82;97993.13;6197445;28;20215;-85
2022/05/05 11:57:50;;;;;;;1.40;1.00;;;;;;;17.58;65.10;97994.22;6196893;28;20734;-85
2022/05/05 12:04:12;;;;;;;1.43;1.33;;;;;;;17.15;67.46;97987.16;6212864;28;20242;-85
2022/05/05 12:07:20;;;;;;;1.30;1.20;;;;;;;17.01;68.67;97987.72;6196267;28;20223;-85
2022/05/05 12:10:32;;;;;;;2.93;1.20;;;;;;;16.91;68.94;97985.97;6214268;28;20610;-85
2022/05/05 12:13:37;;;;;;;1.17;1.03;;;;;;;17.07;68.83;97987.91;6197254;28;20274;-84
2022/05/05 12:16:43;;;;;;;1.37;1.27;;;;;;;17.38;68.71;97985.59;6212339;28;20695;-84
2022/05/05 12:19:53;;;;;;;2.60;1.20;;;;;;;17.73;67.92;97983.81;6230312;28;20667;-84
2022/05/05 12:22:58;;;;;;;1.70;1.23;;;;;;;18.03;67.42;97988.59;6228994;28;20239;-84
2022/05/05 12:26:02;;;;;;;1.40;1.30;;;;;;;18.37;66.63;97984.00;6229451;28;20247;-84
2022/05/05 12:29:15;;;;;;;1.40;1.23;;;;;;;18.72;66.82;97966.88;6212490;28;20243;-85
2022/05/05 12:32:19;;;;;;;1.40;1.30;;;;;;;19.04;66.06;97978.56;6218149;28;20374;-85
2022/05/05 12:35:36;;;;;;;1.37;1.27;;;;;;;19.36;65.39;97975.81;6243926;28;20706;-85
2022/05/05 12:38:38;;;;;;;2.90;1.40;;;;;;;19.65;64.92;97961.88;6226581;28;20224;-85
2022/05/05 12:41:56;;;;;;;1.13;1.13;;;;;;;20.00;64.26;97963.22;6225584;28;20231;-85
2022/05/05 12:44:59;;;;;;;2.07;1.40;;;;;;;20.30;63.75;97972.25;6201399;28;20256;-86
2022/05/05 12:48:03;;;;;;;1.40;1.30;;;;;;;20.65;63.56;97959.31;6204795;28;20242;-85
2022/05/05 12:51:16;;;;;;;1.40;1.30;;;;;;;21.00;62.26;97958.66;6202557;28;20244;-85
2022/05/05 13:00:59;;;;;;;1.90;1.13;;;;;;;22.44;56.94;97948.22;6212406;28;20232;-85
2022/05/05 13:04:19;;;;;;;1.07;1.03;;;;;;;23.35;52.48;97944.69;6212451;28;20232;-85
2022/05/05 13:07:21;;;;;;;2.20;1.00;;;;;;;23.76;50.20;97930.41;6211660;28;20259;-85
2022/05/05 13:10:23;;;;;;;1.63;1.10;;;;;;;24.35;48.69;97930.66;6228315;28;20786;-85
2022/05/05 13:13:25;;;;;;;1.10;1.10;;;;;;;24.59;44.27;97918.44;6211621;28;20339;-86
2022/05/05 13:16:28;;;;;;;1.03;0.93;;;;;;;25.08;44.38;97919.91;6209321;28;20236;-86
2022/05/05 13:19:30;;;;;;;1.50;1.10;;;;;;;25.19;42.76;97920.13;6195638;28;20365;-86
2022/05/05 13:22:32;;;;;;;2.70;1.00;;;;;;;25.22;42.45;97917.00;6211023;28;20262;-86
2022/05/05 13:25:35;;;;;;;1.50;1.07;;;;;;;25.22;42.21;97917.00;6195112;28;20233;-86
2022/05/05 13:28:37;;;;;;;1.07;1.03;;;;;;;25.18;41.24;97906.81;6195174;28;20231;-86
2022/05/05 13:31:40;;;;;;;1.00;0.97;;;;;;;25.31;40.80;97904.94;6228001;28;20239;-86
2022/05/05 13:34:42;;;;;;;1.77;0.93;;;;;;;25.10;40.41;97905.16;6204617;28;20237;-85
2022/05/05 13:37:44;;;;;;;1.03;1.00;;;;;;;24.48;41.11;97908.25;6229332;28;20243;-86
2022/05/05 13:40:46;;;;;;;1.10;1.00;;;;;;;24.02;41.90;97908.13;6195565;28;20255;-86
2022/05/05 13:43:49;;;;;;;2.13;1.10;;;;;;;23.64;43.61;97916.69;6235286;28;20234;-86
2022/05/05 13:46:51;;;;;;;1.20;1.10;;;;;;;23.07;46.30;97920.44;6229076;28;20235;-86
2022/05/05 13:49:53;;;;;;;1.00;0.90;;;;;;;22.83;47.95;97920.88;6211511;28;20330;-85
2022/05/05 13:52:58;;;;;;;1.57;1.20;;;;;;;22.48;47.39;97919.91;6194548;28;20227;-85
2022/05/05 13:56:00;;;;;;;1.53;1.07;;;;;;;22.20;48.79;97913.63;6193731;28;20228;-86
2022/05/05 13:59:04;;;;;;;2.60;1.10;;;;;;;21.90;51.41;97916.38;6186386;28;20735;-85
2022/05/05 14:02:06;;;;;;;1.17;1.07;;;;;;;21.66;51.01;97922.88;6210814;28;20472;-85
2022/05/05 14:05:09;;;;;;;1.17;0.83;;;;;;;21.53;51.33;97919.22;6186584;28;20240;-85
2022/05/05 14:14:52;;;;;;;1.50;1.30;;;;;;;21.14;52.38;97912.22;6210337;28;20229;-85
2022/05/05 14:17:54;;;;;;;2.10;1.20;;;;;;;21.17;52.93;97925.25;6210597;28;20446;-85
2022/05/05 14:20:58;;;;;;;1.90;0.90;;;;;;;21.26;53.57;97910.75;6194382;28;20734;-85
2022/05/05 14:24:01;;;;;;;1.23;1.00;;;;;;;21.47;53.22;97912.72;6226846;28;20228;-85
2022/05/05 14:27:03;;;;;;;3.90;1.27;;;;;;;21.99;52.49;97904.50;6210356;28;20239;-86
2022/05/05 14:30:06;;;;;;;1.03;1.00;;;;;;;22.94;50.93;97909.59;6193837;28;20631;-85
2022/05/05 14:33:08;;;;;;;1.80;1.30;;;;;;;25.56;43.20;97913.16;6210255;28;20216;-86
2022/05/05 14:36:10;;;;;;;1.47;1.30;;;;;;;26.54;40.24;97913.81;6193553;28;20203;-85
2022/05/05 14:39:12;;;;;;;1.50;1.40;;;;;;;30.50;32.00;97911.59;6210373;28;20204;-86
2022/05/05 14:42:14;;;;;;;1.77;1.10;;;;;;;33.50;27.34;97905.28;6226034;28;20325;-86
2022/05/05 14:45:18;;;;;;;1.37;1.27;;;;;;;34.61;24.68;97903.03;6213107;28;20592;-86
2022/05/05 14:48:20;;;;;;;3.25;1.20;;;;;;;35.43;23.93;97903.88;6210753;28;20262;-86
2022/05/05 14:51:25;;;;;;;2.67;1.17;;;;;;;35.76;23.22;97902.44;6201765;28;20598;-86
2022/05/05 14:54:29;;;;;;;1.35;1.20;;;;;;;36.21;22.23;97909.69;6204411;28;20228;-86
2022/05/05 14:57:31;;;;;;;1.00;0.90;;;;;;;36.37;22.48;97904.94;6209366;28;20647;-86
2022/05/05 15:00:33;;;;;;;1.63;1.30;;;;;;;36.58;22.13;97899.03;6211142;28;20693;-85
2022/05/05 15:03:37;;;;;;;1.88;1.30;;;;;;;36.53;23.24;97890.81;6210368;28;20263;-86
2022/05/05 15:06:39;;;;;;;2.67;1.23;;;;;;;36.57;22.36;97883.63;6230546;28;20231;-86
2022/05/05 15:09:42;;;;;;;1.30;1.20;;;;;;;36.58;22.67;97873.44;6198561;28;20238;-86
2022/05/05 15:12:46;;;;;;;4.22;1.30;;;;;;;36.89;21.95;97882.31;6229730;28;20745;-86
2022/05/05 15:15:49;;;;;;;2.22;1.48;;;;;;;34.85;23.87;97878.63;6231115;28;20458;-86
2022/05/05 15:18:51;;;;;;;1.40;1.30;;;;;;;31.42;27.79;97867.59;6231613;28;20365;-86
2022/05/05 15:21:54;;;;;;;1.30;1.20;;;;;;;28.62;31.98;97858.50;6198489;28;20231;-86
2022/05/05 15:25:04;;;;;;;2.20;1.20;;;;;;;25.57;37.50;97859.94;6230907;28;20329;-86
2022/05/05 15:28:06;;;;;;;1.80;1.38;;;;;;;26.82;35.44;97849.22;6198025;28;20246;-86
2022/05/05 15:31:09;;;;;;;1.75;1.15;;;;;;;27.21;34.23;97835.53;6214432;28;20239;-86